Time;durP1;ratioP1;P1;durP2;ratioP2;P2;SDS_P1;SDS_P2;PMS_P1;PMS_P2;Temp;Humidity;BMP_temperature;BMP_pressure;BME280_temperature;BME280_humidity;BME280_pressure;Samples;Min_cycle;Max_cycle;Signal;HPM_P1;HPM_P2
2023/04/10 00:01:23;;;;;;;0.63;0.55;;;;;;;9.50;100.00;102166.91;10416488;28;20049;-78
2023/04/10 00:06:26;;;;;;;1.00;0.98;;;;;;;9.37;100.00;102169.66;10421199;28;20439;-77
2023/04/10 00:11:28;;;;;;;6.82;3.28;;;;;;;9.55;100.00;102168.84;10418258;28;20061;-77
2023/04/10 00:16:29;;;;;;;2.70;1.55;;;;;;;9.30;100.00;102177.88;10408573;28;20518;-78
2023/04/10 00:21:31;;;;;;;0.85;0.85;;;;;;;9.31;100.00;102169.38;10415841;28;20056;-78
2023/04/10 00:26:34;;;;;;;1.75;1.52;;;;;;;9.65;100.00;102160.75;10416316;28;20038;-78
2023/04/10 00:31:35;;;;;;;1.60;1.27;;;;;;;9.56;100.00;102162.91;10401101;28;20105;-77
2023/04/10 00:36:37;;;;;;;4.07;1.50;;;;;;;9.48;100.00;102157.34;10406553;28;20040;-77
2023/04/10 00:41:39;;;;;;;2.05;1.33;;;;;;;9.45;100.00;102152.06;10386522;28;20053;-77
2023/04/10 00:46:40;;;;;;;2.35;1.40;;;;;;;9.42;100.00;102145.06;10398104;28;20033;-77
2023/04/10 00:51:42;;;;;;;1.58;1.20;;;;;;;9.30;100.00;102136.72;10405212;28;20136;-78
2023/04/10 00:56:45;;;;;;;2.88;1.15;;;;;;;9.34;100.00;102128.38;10380806;28;20128;-78
2023/04/10 01:01:47;;;;;;;0.95;0.73;;;;;;;9.46;100.00;102123.84;10403301;28;20064;-77
2023/04/10 01:07:00;;;;;;;1.17;0.95;;;;;;;9.30;100.00;102109.34;10405778;28;20050;-77
2023/04/10 01:12:14;;;;;;;0.43;0.35;;;;;;;9.47;100.00;102114.41;10406308;28;20058;-77
2023/04/10 01:17:41;;;;;;;0.57;0.50;;;;;;;9.33;100.00;102103.47;10401154;28;20080;-77
2023/04/10 01:23:07;;;;;;;2.88;1.02;;;;;;;9.29;100.00;102098.94;10383343;28;20045;-78
2023/04/10 01:28:20;;;;;;;1.27;0.85;;;;;;;9.21;100.00;102102.03;10401808;28;20548;-78
2023/04/10 01:33:27;;;;;;;1.17;1.05;;;;;;;8.95;100.00;102104.97;10409779;28;20046;-78
2023/04/10 01:38:30;;;;;;;0.80;0.65;;;;;;;9.09;100.00;102095.38;10414205;28;20144;-78
2023/04/10 01:43:33;;;;;;;1.73;0.95;;;;;;;9.19;100.00;102093.38;10401485;28;20136;-77
2023/04/10 01:48:35;;;;;;;8.20;1.73;;;;;;;9.09;100.00;102091.13;10404425;28;20729;-77
2023/04/10 01:53:38;;;;;;;1.95;1.17;;;;;;;9.00;100.00;102100.94;10409997;28;20041;-77
2023/04/10 01:58:39;;;;;;;2.80;0.93;;;;;;;8.99;100.00;102094.00;10408266;28;20048;-78
2023/04/10 02:03:41;;;;;;;1.95;0.82;;;;;;;8.98;100.00;102087.09;10408810;28;20512;-77
2023/04/10 02:09:09;;;;;;;1.02;0.80;;;;;;;8.72;100.00;102084.09;10413244;28;20128;-77
2023/04/10 02:14:16;;;;;;;1.65;1.08;;;;;;;8.79;100.00;102083.59;10408722;28;20083;-77
2023/04/10 02:19:18;;;;;;;1.08;0.98;;;;;;;8.76;100.00;102080.84;10402927;28;20046;-78
2023/04/10 02:24:21;;;;;;;0.60;0.60;;;;;;;8.70;100.00;102085.69;10405501;28;22437;-77
2023/04/10 02:29:22;;;;;;;0.50;0.50;;;;;;;8.88;100.00;102078.94;10404223;28;20512;-78
2023/04/10 02:34:24;;;;;;;1.60;0.95;;;;;;;8.94;100.00;102074.91;10414238;28;20044;-78
2023/04/10 02:39:25;;;;;;;0.88;0.75;;;;;;;8.72;100.00;102069.53;10414215;28;20137;-77
2023/04/10 02:44:27;;;;;;;2.10;1.90;;;;;;;8.66;100.00;102074.34;10398723;28;20064;-77
2023/04/10 02:49:28;;;;;;;0.77;0.68;;;;;;;8.64;100.00;102063.09;10387654;28;20049;-77
2023/04/10 02:54:32;;;;;;;1.00;0.75;;;;;;;8.66;100.00;102056.38;10403140;28;20037;-77
2023/04/10 02:59:34;;;;;;;1.30;0.75;;;;;;;8.61;100.00;102054.34;10413544;28;20099;-78
2023/04/10 03:04:38;;;;;;;0.82;0.75;;;;;;;8.53;100.00;102049.69;10401562;28;20034;-77
2023/04/10 03:09:40;;;;;;;2.75;0.65;;;;;;;8.50;100.00;102043.53;10411339;28;20088;-77
2023/04/10 03:14:42;;;;;;;1.48;1.38;;;;;;;8.38;100.00;102048.84;10395289;28;20508;-77
2023/04/10 03:19:43;;;;;;;2.20;1.10;;;;;;;8.41;100.00;102046.47;10389349;28;20053;-77
2023/04/10 03:24:45;;;;;;;0.88;0.85;;;;;;;8.46;100.00;102039.88;10411537;28;20060;-77
2023/04/10 03:29:47;;;;;;;1.58;1.13;;;;;;;8.57;100.00;102038.81;10416403;28;20136;-77
2023/04/10 03:34:49;;;;;;;0.68;0.50;;;;;;;8.56;100.00;102034.47;10412631;28;20049;-78
2023/04/10 03:39:51;;;;;;;2.53;0.65;;;;;;;8.49;100.00;102029.81;10411330;28;20077;-77
2023/04/10 03:44:52;;;;;;;0.73;0.57;;;;;;;8.63;100.00;102032.22;10407721;28;20867;-78
2023/04/10 03:49:54;;;;;;;1.25;0.85;;;;;;;8.42;100.00;102032.81;10411172;28;20132;-78
2023/04/10 03:54:56;;;;;;;0.52;0.45;;;;;;;8.41;100.00;102037.06;10402025;28;20053;-77
2023/04/10 04:00:02;;;;;;;0.10;0.10;;;;;;;8.37;100.00;102024.00;10406466;28;20751;-78
2023/04/10 04:05:20;;;;;;;1.30;1.15;;;;;;;8.38;100.00;102020.59;10408009;28;20614;-78
2023/04/10 04:10:41;;;;;;;4.05;0.70;;;;;;;8.38;100.00;102020.59;10409237;28;20041;-78
2023/04/10 04:15:52;;;;;;;1.40;0.75;;;;;;;8.53;100.00;102015.44;10407596;28;20057;-77
2023/04/10 04:21:10;;;;;;;0.38;0.30;;;;;;;8.33;100.00;102016.91;10410657;28;20045;-77
2023/04/10 04:26:32;;;;;;;0.80;0.52;;;;;;;8.14;100.00;102005.69;10392908;28;20037;-77
2023/04/10 04:31:44;;;;;;;0.05;0.05;;;;;;;7.95;100.00;102008.94;10404584;28;20424;-76
2023/04/10 04:37:11;;;;;;;0.10;0.10;;;;;;;7.90;100.00;102005.22;10406044;28;20559;-77
2023/04/10 04:42:29;;;;;;;0.85;0.82;;;;;;;7.77;100.00;102007.13;10403511;28;20529;-77
2023/04/10 04:47:48;;;;;;;0.63;0.32;;;;;;;7.81;100.00;102004.75;10410373;28;20049;-77
2023/04/10 04:52:55;;;;;;;1.13;0.80;;;;;;;8.03;100.00;102011.91;10408246;28;20069;-76
2023/04/10 04:58:05;;;;;;;0.65;0.63;;;;;;;7.74;100.00;102003.50;10419453;28;20079;-77
2023/04/10 05:03:27;;;;;;;1.50;0.65;;;;;;;7.81;100.00;101995.34;10402919;28;20053;-77
2023/04/10 05:08:56;;;;;;;1.33;1.20;;;;;;;7.52;100.00;101992.06;10414839;28;20095;-77
2023/04/10 05:14:26;;;;;;;2.38;0.90;;;;;;;7.54;100.00;101995.59;10397558;28;20052;-78
2023/04/10 05:19:36;;;;;;;0.38;0.35;;;;;;;7.65;100.00;101992.72;10408715;28;20049;-77
2023/04/10 05:25:01;;;;;;;1.33;1.13;;;;;;;7.88;100.00;101988.88;10411601;28;20489;-77
2023/04/10 05:30:12;;;;;;;1.95;1.00;;;;;;;8.12;100.00;101998.72;10412813;28;20051;-77
2023/04/10 05:35:32;;;;;;;;;;;;;;;8.21;100.00;101989.81;10402573;28;20504;-77
2023/04/10 05:40:46;;;;;;;0.57;0.57;;;;;;;8.13;100.00;101982.47;10400457;28;20051;-77
2023/04/10 05:46:17;;;;;;;0.88;0.88;;;;;;;8.44;100.00;101979.88;10388947;28;20053;-77
2023/04/10 05:51:27;;;;;;;0.47;0.43;;;;;;;8.76;100.00;101974.63;10405230;28;20128;-77
2023/04/10 05:56:51;;;;;;;0.82;0.77;;;;;;;8.80;100.00;101972.31;10413078;28;20515;-77
2023/04/10 06:02:17;;;;;;;0.30;0.30;;;;;;;9.11;100.00;101973.84;10403982;28;20112;-77
2023/04/10 06:07:20;;;;;;;1.83;1.45;;;;;;;8.82;100.00;101973.28;10389862;28;20096;-77
2023/04/10 06:12:21;;;;;;;0.75;0.60;;;;;;;9.15;100.00;101969.72;10417753;28;20068;-78
2023/04/10 06:17:24;;;;;;;1.45;0.75;;;;;;;9.38;100.00;101965.69;10388896;28;20038;-77
2023/04/10 06:22:27;;;;;;;1.67;1.05;;;;;;;10.01;100.00;101960.00;10398667;28;20504;-78
2023/04/10 06:27:29;;;;;;;0.50;0.50;;;;;;;9.88;100.00;101955.09;10389881;28;20042;-77
2023/04/10 06:32:30;;;;;;;0.65;0.55;;;;;;;10.24;100.00;101947.28;10408332;28;20045;-77
2023/04/10 06:37:33;;;;;;;0.50;0.50;;;;;;;10.60;100.00;101942.00;10411634;28;20408;-77
2023/04/10 06:42:37;;;;;;;1.95;1.38;;;;;;;10.20;100.00;101930.78;10391034;28;20041;-78
2023/04/10 06:47:47;;;;;;;0.80;0.75;;;;;;;10.94;100.00;101918.50;10416363;28;20116;-77
2023/04/10 06:52:49;;;;;;;1.13;0.73;;;;;;;10.92;100.00;101909.81;10425403;28;20085;-77
2023/04/10 06:57:50;;;;;;;0.60;0.60;;;;;;;10.89;100.00;101904.53;10403402;28;20045;-77
2023/04/10 07:02:52;;;;;;;0.40;0.30;;;;;;;11.64;100.00;101882.47;10414524;28;20081;-77
2023/04/10 07:07:53;;;;;;;2.42;1.05;;;;;;;11.53;100.00;101884.66;10414263;28;20046;-77
2023/04/10 07:12:57;;;;;;;1.60;1.25;;;;;;;11.73;100.00;101887.97;10415099;28;20060;-78
2023/04/10 07:17:59;;;;;;;0.70;0.38;;;;;;;11.73;100.00;101882.81;10408442;28;20479;-78
2023/04/10 07:23:00;;;;;;;1.88;1.17;;;;;;;11.53;100.00;101876.03;10408856;28;20045;-77
2023/04/10 07:28:02;;;;;;;0.70;0.57;;;;;;;12.51;100.00;101854.53;10409852;28;20127;-78
2023/04/10 07:33:03;;;;;;;1.42;0.95;;;;;;;12.18;100.00;101842.22;10414770;28;20111;-77
2023/04/10 07:38:05;;;;;;;1.02;0.88;;;;;;;12.96;100.00;101841.31;10413111;28;20065;-77
2023/04/10 07:43:06;;;;;;;1.05;0.82;;;;;;;12.82;100.00;101820.19;10418200;28;20110;-77
2023/04/10 07:48:08;;;;;;;1.25;0.63;;;;;;;13.04;100.00;101814.81;10390812;28;20034;-77
2023/04/10 07:53:09;;;;;;;2.03;1.35;;;;;;;13.40;100.00;101809.00;10392566;28;20084;-77
2023/04/10 07:58:11;;;;;;;2.13;0.75;;;;;;;13.58;100.00;101799.19;10405581;28;20046;-77
2023/04/10 08:03:14;;;;;;;1.45;0.85;;;;;;;13.64;100.00;101782.91;10401582;28;20048;-78
2023/04/10 08:08:16;;;;;;;1.38;0.40;;;;;;;13.92;100.00;101774.19;10395707;28;20045;-77
2023/04/10 08:13:17;;;;;;;0.85;0.77;;;;;;;13.68;100.00;101779.59;10392610;28;20041;-78
2023/04/10 08:18:19;;;;;;;0.77;0.60;;;;;;;13.55;100.00;101768.00;10408812;28;20129;-77
2023/04/10 08:23:21;;;;;;;0.30;0.30;;;;;;;14.00;100.00;101747.59;10407110;28;20154;-78
2023/04/10 08:28:22;;;;;;;1.38;0.65;;;;;;;13.71;100.00;101758.06;10394836;28;20038;-78
2023/04/10 08:33:24;;;;;;;0.43;0.32;;;;;;;14.09;100.00;101751.28;10392735;28;20056;-78
2023/04/10 08:38:26;;;;;;;8.55;0.88;;;;;;;13.93;98.12;101744.84;10406146;28;20546;-78
2023/04/10 08:43:28;;;;;;;1.05;0.40;;;;;;;14.35;98.83;101742.38;10407316;28;20060;-78
2023/04/10 08:48:52;;;;;;;1.55;0.85;;;;;;;14.67;95.70;101739.69;10382697;28;20048;-78
2023/04/10 08:54:01;;;;;;;1.15;0.85;;;;;;;15.34;92.32;101741.97;10409411;28;20045;-78
2023/04/10 08:59:02;;;;;;;0.88;0.63;;;;;;;15.39;94.85;101748.09;10398415;28;20641;-77
2023/04/10 09:04:04;;;;;;;0.73;0.43;;;;;;;15.56;94.05;101738.06;10406898;28;20074;-78
2023/04/10 09:09:06;;;;;;;1.50;1.13;;;;;;;14.54;97.13;101743.69;10401623;28;20073;-78
2023/04/10 09:14:20;;;;;;;4.25;0.85;;;;;;;15.16;94.94;101732.94;10413052;28;20140;-78
2023/04/10 09:19:30;;;;;;;2.55;0.47;;;;;;;15.82;91.25;101709.06;10407533;28;20057;-78
2023/04/10 09:24:36;;;;;;;;;;;;;;;15.43;93.36;101697.13;10396076;28;20435;-78
2023/04/10 09:29:47;;;;;;;1.13;1.00;;;;;;;15.11;96.16;101700.84;10410331;28;19983;-79
2023/04/10 09:34:55;;;;;;;0.38;0.20;;;;;;;15.58;95.02;101701.72;10411591;28;20088;-78
2023/04/10 09:39:57;;;;;;;0.95;0.60;;;;;;;15.50;92.29;101698.97;10415954;28;20053;-78
2023/04/10 09:45:00;;;;;;;0.28;0.20;;;;;;;16.01;93.08;101697.28;10413899;28;20041;-78
2023/04/10 09:50:01;;;;;;;0.43;0.43;;;;;;;15.23;94.37;101690.69;10415293;28;20427;-78
2023/04/10 09:55:05;;;;;;;0.25;0.25;;;;;;;15.96;91.65;101684.22;10388062;28;20491;-78
2023/04/10 10:00:08;;;;;;;1.02;0.80;;;;;;;15.19;96.72;101668.13;10411480;28;20360;-77
2023/04/10 10:05:10;;;;;;;1.17;0.47;;;;;;;15.49;94.19;101661.75;10396750;28;20045;-78
2023/04/10 10:10:11;;;;;;;0.70;0.63;;;;;;;15.68;94.88;101641.28;10401843;28;20569;-78
2023/04/10 10:15:40;;;;;;;0.60;0.50;;;;;;;15.83;97.56;101636.38;10411319;28;20133;-78
2023/04/10 10:20:44;;;;;;;1.17;0.73;;;;;;;15.70;97.25;101616.22;10404388;28;20047;-78
2023/04/10 10:25:48;;;;;;;0.28;0.20;;;;;;;15.58;93.97;101610.81;10410038;28;20124;-78
2023/04/10 10:30:50;;;;;;;0.88;0.43;;;;;;;15.71;94.14;101605.84;10411365;28;20112;-78
2023/04/10 10:35:51;;;;;;;0.90;0.65;;;;;;;15.79;95.91;101600.78;10409704;28;20049;-78
2023/04/10 10:40:56;;;;;;;1.38;1.27;;;;;;;15.37;95.06;101583.66;10410339;28;20045;-78
2023/04/10 10:46:02;;;;;;;1.60;1.40;;;;;;;15.97;97.58;101581.16;10402979;28;20056;-77
2023/04/10 10:51:04;;;;;;;0.57;0.35;;;;;;;15.29;96.92;101569.66;10414400;28;20094;-77
2023/04/10 10:56:35;;;;;;;1.05;0.90;;;;;;;15.97;95.35;101561.22;10407772;28;20429;-77
2023/04/10 11:01:37;;;;;;;1.05;0.38;;;;;;;16.21;95.43;101554.63;10397472;28;20542;-77
2023/04/10 11:06:50;;;;;;;0.32;0.32;;;;;;;15.99;94.07;101538.75;10394352;28;20042;-76
2023/04/10 11:11:57;;;;;;;0.00;0.00;;;;;;;16.11;90.90;101538.03;10409381;28;20057;-77
2023/04/10 11:16:59;;;;;;;1.15;0.57;;;;;;;15.98;93.14;101525.69;10407751;28;20061;-77
2023/04/10 11:22:06;;;;;;;0.45;0.40;;;;;;;16.01;94.21;101495.44;10414765;28;20088;-77
2023/04/10 11:27:38;;;;;;;0.13;0.13;;;;;;;17.22;93.92;101499.31;10413117;28;20423;-77
2023/04/10 11:32:41;;;;;;;0.28;0.28;;;;;;;16.63;95.52;101496.16;10412749;28;20518;-77
2023/04/10 11:37:42;;;;;;;1.92;1.25;;;;;;;17.08;92.83;101481.00;10407320;28;20037;-78
2023/04/10 11:42:44;;;;;;;0.10;0.10;;;;;;;17.00;90.39;101469.66;10411547;28;20116;-77
2023/04/10 11:47:52;;;;;;;0.63;0.38;;;;;;;17.04;92.38;101466.19;10413839;28;20544;-77
2023/04/10 11:52:54;;;;;;;0.20;0.17;;;;;;;17.35;92.26;101456.00;10415594;28;20041;-77
2023/04/10 11:57:57;;;;;;;0.20;0.20;;;;;;;17.28;93.86;101459.44;10393924;28;20045;-78
2023/04/10 12:02:58;;;;;;;0.45;0.20;;;;;;;16.62;91.53;101444.13;10405150;28;20531;-77
2023/04/10 12:08:01;;;;;;;0.03;0.03;;;;;;;17.06;91.65;101438.44;10406470;28;21177;-77
2023/04/10 12:13:02;;;;;;;0.13;0.13;;;;;;;18.19;88.73;101415.59;10420579;28;20044;-78
2023/04/10 12:18:05;;;;;;;0.35;0.30;;;;;;;17.70;91.55;101415.41;10409022;28;20049;-77
2023/04/10 12:23:07;;;;;;;0.10;0.10;;;;;;;18.13;90.71;101422.53;10399137;28;20076;-78
2023/04/10 12:28:15;;;;;;;7.88;0.90;;;;;;;17.79;90.13;101409.34;10411867;28;20533;-78
2023/04/10 12:33:24;;;;;;;0.25;0.25;;;;;;;17.28;90.84;101407.34;10389016;28;20082;-77
2023/04/10 12:38:40;;;;;;;1.33;0.63;;;;;;;17.01;92.93;101413.25;10402932;28;20040;-78
2023/04/10 12:43:43;;;;;;;0.70;0.28;;;;;;;16.69;93.41;101396.47;10382302;28;20037;-77
2023/04/10 12:48:45;;;;;;;0.55;0.30;;;;;;;16.78;91.95;101386.16;10386696;28;20056;-77
2023/04/10 12:53:46;;;;;;;1.45;0.22;;;;;;;17.11;92.68;101383.81;10391309;28;20045;-78
2023/04/10 12:58:48;;;;;;;0.43;0.20;;;;;;;17.27;89.30;101376.97;10403032;28;20128;-78
2023/04/10 13:03:49;;;;;;;0.65;0.55;;;;;;;17.22;90.22;101368.25;10417283;28;20084;-78
2023/04/10 13:08:51;;;;;;;0.10;0.10;;;;;;;17.19;91.97;101355.22;10403761;28;20076;-77
2023/04/10 13:13:53;;;;;;;0.40;0.40;;;;;;;17.16;92.14;101344.81;10409274;28;20123;-77
2023/04/10 13:18:55;;;;;;;0.25;0.15;;;;;;;17.19;88.62;101323.97;10413561;28;20045;-78
2023/04/10 13:23:57;;;;;;;0.28;0.28;;;;;;;16.96;91.30;101322.09;10406589;28;20049;-78
2023/04/10 13:28:59;;;;;;;0.08;0.08;;;;;;;16.82;90.26;101306.41;10412955;28;20037;-77
2023/04/10 13:34:00;;;;;;;0.43;0.30;;;;;;;16.81;91.87;101294.25;10407613;28;20132;-77
2023/04/10 13:39:02;;;;;;;0.60;0.40;;;;;;;17.00;89.03;101271.81;10410949;28;20525;-77
2023/04/10 13:44:03;;;;;;;0.38;0.15;;;;;;;17.13;92.94;101267.53;10412610;28;20061;-77
2023/04/10 13:49:05;;;;;;;0.10;0.00;;;;;;;16.73;92.68;101249.94;10415129;28;20065;-77
2023/04/10 13:54:07;;;;;;;0.95;0.43;;;;;;;16.79;94.44;101242.16;10412106;28;20050;-77
2023/04/10 13:59:09;;;;;;;0.28;0.20;;;;;;;17.15;92.66;101229.34;10404606;28;20068;-78
2023/04/10 14:04:11;;;;;;;0.20;0.10;;;;;;;16.72;92.54;101219.56;10404235;28;20566;-77
2023/04/10 14:09:12;;;;;;;0.38;0.28;;;;;;;16.92;91.80;101204.09;10409109;28;20625;-77
2023/04/10 14:14:14;;;;;;;0.47;0.25;;;;;;;16.75;93.28;101200.53;10402926;28;20076;-78
2023/04/10 14:19:15;;;;;;;0.38;0.28;;;;;;;16.96;91.63;101186.78;10412334;28;20072;-78
2023/04/10 14:24:17;;;;;;;0.17;0.17;;;;;;;16.65;91.78;101161.47;10396948;28;20132;-77
2023/04/10 14:29:18;;;;;;;0.63;0.55;;;;;;;16.68;93.77;101165.81;10400644;28;20128;-77
2023/04/10 14:34:25;;;;;;;0.52;0.25;;;;;;;16.89;91.72;101157.22;10400286;28;20051;-77
2023/04/10 14:39:27;;;;;;;0.38;0.30;;;;;;;16.97;91.84;101146.88;10411263;28;20508;-76
2023/04/10 14:44:29;;;;;;;0.35;0.32;;;;;;;17.24;91.60;101145.19;10401918;28;20128;-77
2023/04/10 14:49:31;;;;;;;0.45;0.30;;;;;;;16.65;92.90;101134.56;10377602;28;20128;-77
2023/04/10 14:54:33;;;;;;;0.95;0.45;;;;;;;16.86;92.60;101127.72;10395003;28;20056;-77
2023/04/10 14:59:34;;;;;;;3.38;0.35;;;;;;;16.66;91.90;101105.09;10400695;28;20872;-77
2023/04/10 15:04:35;;;;;;;0.47;0.25;;;;;;;16.91;92.82;101107.78;10405817;28;20038;-78
2023/04/10 15:09:37;;;;;;;0.55;0.40;;;;;;;16.91;92.42;101105.19;10386584;28;20060;-77
2023/04/10 15:14:39;;;;;;;0.80;0.38;;;;;;;16.98;93.51;101090.50;10391593;28;20415;-78
2023/04/10 15:19:40;;;;;;;3.00;1.52;;;;;;;16.71;93.37;101093.00;10393090;28;20045;-80
2023/04/10 15:24:42;;;;;;;0.32;0.22;;;;;;;17.06;94.71;101084.44;10399017;28;20043;-81
2023/04/10 15:29:51;;;;;;;0.22;0.15;;;;;;;16.63;97.19;101079.94;10416452;28;20045;-81
2023/04/10 15:34:52;;;;;;;0.85;0.22;;;;;;;16.86;94.84;101060.06;10397514;28;20052;-79
2023/04/10 15:39:54;;;;;;;1.38;0.65;;;;;;;16.64;94.62;101054.81;10391453;28;20034;-80
2023/04/10 15:44:56;;;;;;;1.02;0.60;;;;;;;16.71;92.66;101051.38;10398486;28;20062;-78
2023/04/10 15:49:57;;;;;;;0.20;0.20;;;;;;;16.46;94.08;101051.28;10400704;28;20059;-77
2023/04/10 15:54:59;;;;;;;1.48;0.30;;;;;;;16.55;95.91;101049.56;10402218;28;20125;-77
2023/04/10 16:00:02;;;;;;;0.10;0.10;;;;;;;16.08;97.61;101036.38;10399774;28;20061;-78
2023/04/10 16:05:06;;;;;;;0.20;0.20;;;;;;;15.76;100.00;101030.94;10412907;28;20467;-78
2023/04/10 16:10:08;;;;;;;0.88;0.55;;;;;;;15.42;100.00;101000.44;10412905;28;20041;-77
2023/04/10 16:15:10;;;;;;;0.05;0.05;;;;;;;15.30;100.00;101036.69;10428110;28;20060;-77
2023/04/10 16:20:12;;;;;;;0.10;0.10;;;;;;;14.82;100.00;101042.28;10399725;28;20048;-77
2023/04/10 16:25:13;;;;;;;0.10;0.03;;;;;;;14.51;100.00;101041.91;10401148;28;20041;-77
2023/04/10 16:30:15;;;;;;;0.10;0.10;;;;;;;14.33;100.00;101018.34;10417832;28;20041;-78
2023/04/10 16:35:17;;;;;;;0.10;0.10;;;;;;;14.19;100.00;101047.53;10391764;28;20065;-78
2023/04/10 16:40:20;;;;;;;1.30;0.70;;;;;;;13.61;100.00;101001.84;10396501;28;20389;-78
2023/04/10 16:45:22;;;;;;;0.00;0.00;;;;;;;13.65;100.00;100982.03;10408372;28;20057;-77
2023/04/10 16:50:23;;;;;;;0.60;0.30;;;;;;;13.78;100.00;100970.16;10410011;28;20116;-78
2023/04/10 16:55:25;;;;;;;1.63;0.20;;;;;;;13.77;100.00;100983.94;10409691;28;20072;-78
2023/04/10 17:00:26;;;;;;;0.17;0.17;;;;;;;13.71;100.00;100974.38;10407548;28;20087;-78
2023/04/10 17:05:34;;;;;;;1.30;0.65;;;;;;;13.98;100.00;100959.19;10407242;28;20106;-78
2023/04/10 17:10:35;;;;;;;0.77;0.43;;;;;;;13.77;100.00;100942.50;10404849;28;20072;-78
2023/04/10 17:15:37;;;;;;;0.50;0.30;;;;;;;14.03;100.00;100932.47;10407094;28;20492;-78
2023/04/10 17:20:38;;;;;;;0.00;0.00;;;;;;;14.26;100.00;100930.16;10407804;28;20068;-78
2023/04/10 17:25:40;;;;;;;0.98;0.40;;;;;;;14.09;100.00;100932.56;10395056;28;20055;-78
2023/04/10 17:30:42;;;;;;;0.22;0.20;;;;;;;14.24;100.00;100931.00;10406555;28;20120;-78
2023/04/10 17:35:43;;;;;;;0.50;0.32;;;;;;;14.23;100.00;100950.88;10407191;28;20048;-78
2023/04/10 17:40:45;;;;;;;0.00;0.00;;;;;;;14.33;100.00;100962.19;10418879;28;20508;-78
2023/04/10 17:45:47;;;;;;;0.45;0.43;;;;;;;14.42;100.00;100961.41;10409775;28;20128;-78
2023/04/10 17:50:50;;;;;;;0.30;0.17;;;;;;;14.14;100.00;100955.94;10398893;28;20068;-78
2023/04/10 17:55:51;;;;;;;0.47;0.35;;;;;;;14.24;100.00;100983.69;10403616;28;20571;-78
2023/04/10 18:00:53;;;;;;;0.82;0.38;;;;;;;14.20;100.00;100991.41;10396725;28;20136;-78
2023/04/10 18:05:54;;;;;;;0.47;0.40;;;;;;;13.48;100.00;101020.63;10414536;28;20054;-77
2023/04/10 18:10:56;;;;;;;0.10;0.10;;;;;;;13.09;100.00;101026.84;10396565;28;20038;-78
2023/04/10 18:16:01;;;;;;;0.35;0.32;;;;;;;13.14;100.00;100989.88;10401313;28;20048;-77
2023/04/10 18:21:03;;;;;;;0.08;0.08;;;;;;;12.83;100.00;100978.13;10384405;28;20124;-78
2023/04/10 18:26:05;;;;;;;0.35;0.25;;;;;;;12.64;100.00;100945.91;10402665;28;20063;-78
2023/04/10 18:31:07;;;;;;;0.90;0.28;;;;;;;12.47;100.00;100932.69;10422787;28;20091;-78
2023/04/10 18:36:09;;;;;;;2.05;0.28;;;;;;;12.42;100.00;100908.44;10407937;28;20128;-78
2023/04/10 18:41:11;;;;;;;0.22;0.13;;;;;;;12.61;100.00;100895.03;10418258;28;20041;-78
2023/04/10 18:46:13;;;;;;;0.82;0.45;;;;;;;12.50;100.00;100866.44;10398509;28;20055;-78
2023/04/10 18:51:14;;;;;;;1.23;0.30;;;;;;;12.49;100.00;100853.47;10426728;28;20462;-78
2023/04/10 18:56:16;;;;;;;0.25;0.22;;;;;;;12.53;100.00;100852.69;10406189;28;20129;-78
2023/04/10 19:01:17;;;;;;;2.60;0.93;;;;;;;11.78;100.00;100826.31;10423340;28;20033;-77
2023/04/10 19:06:22;;;;;;;0.22;0.10;;;;;;;11.59;100.00;100758.84;10426270;28;20112;-78
2023/04/10 19:11:24;;;;;;;0.68;0.30;;;;;;;11.66;100.00;100714.25;10417826;28;20049;-78
2023/04/10 19:16:25;;;;;;;0.13;0.13;;;;;;;11.90;100.00;100707.78;10411118;28;20036;-78
2023/04/10 19:21:27;;;;;;;1.27;0.68;;;;;;;11.66;100.00;100705.66;10397575;28;20045;-77
2023/04/10 19:26:29;;;;;;;0.65;0.65;;;;;;;11.78;100.00;100692.94;10414536;28;20045;-78
2023/04/10 19:31:30;;;;;;;0.10;0.10;;;;;;;11.74;100.00;100701.50;10410537;28;20038;-78
2023/04/10 19:36:33;;;;;;;0.28;0.22;;;;;;;11.66;100.00;100721.13;10408000;28;20319;-77
2023/04/10 19:41:36;;;;;;;0.10;0.10;;;;;;;11.78;100.00;100676.59;10400825;28;20053;-78
2023/04/10 19:46:37;;;;;;;0.80;0.52;;;;;;;11.74;100.00;100632.66;10407158;28;20045;-78
2023/04/10 19:51:39;;;;;;;0.40;0.40;;;;;;;11.77;100.00;100603.47;10403567;28;20136;-78
2023/04/10 19:56:41;;;;;;;0.20;0.17;;;;;;;11.59;100.00;100596.28;10402702;28;20443;-78
2023/04/10 20:01:42;;;;;;;0.35;0.28;;;;;;;11.56;100.00;100628.06;10410101;28;20060;-78
2023/04/10 20:06:44;;;;;;;0.38;0.35;;;;;;;11.56;100.00;100650.44;10413874;28;20053;-78
2023/04/10 20:11:46;;;;;;;0.00;0.00;;;;;;;11.59;100.00;100633.28;10407843;28;20072;-77
2023/04/10 20:16:48;;;;;;;0.45;0.45;;;;;;;11.64;100.00;100654.03;10406068;28;20067;-78
2023/04/10 20:21:49;;;;;;;0.40;0.22;;;;;;;11.62;100.00;100637.63;10413923;28;20052;-77
2023/04/10 20:26:50;;;;;;;0.57;0.57;;;;;;;11.38;100.00;100620.88;10415156;28;20132;-77
2023/04/10 20:31:52;;;;;;;1.10;0.77;;;;;;;11.38;100.00;100633.78;10410899;28;20144;-78
2023/04/10 20:36:53;;;;;;;0.43;0.20;;;;;;;11.28;100.00;100631.88;10410556;28;20577;-77
2023/04/10 20:41:56;;;;;;;2.20;0.90;;;;;;;11.40;100.00;100639.84;10415199;28;20053;-77
2023/04/10 20:46:57;;;;;;;0.98;0.88;;;;;;;11.32;100.00;100646.56;10406160;28;20107;-77
2023/04/10 20:51:59;;;;;;;0.40;0.32;;;;;;;11.33;100.00;100648.31;10395371;28;20087;-78
2023/04/10 20:57:00;;;;;;;1.30;0.95;;;;;;;11.18;100.00;100638.53;10409829;28;20064;-77
2023/04/10 21:02:02;;;;;;;0.05;0.05;;;;;;;11.35;100.00;100674.09;10405645;28;20049;-77
2023/04/10 21:07:04;;;;;;;0.75;0.38;;;;;;;11.37;100.00;100680.19;10403146;28;20038;-77
2023/04/10 21:12:05;;;;;;;0.00;0.00;;;;;;;11.34;100.00;100677.53;10414282;28;20061;-79
2023/04/10 21:17:07;;;;;;;0.63;0.63;;;;;;;11.24;100.00;100668.75;10406639;28;20087;-77
2023/04/10 21:22:11;;;;;;;0.13;0.13;;;;;;;11.30;100.00;100679.19;10405085;28;20030;-78
2023/04/10 21:27:13;;;;;;;0.75;0.20;;;;;;;11.27;100.00;100685.16;10404820;28;20051;-77
2023/04/10 21:32:14;;;;;;;0.30;0.20;;;;;;;11.49;100.00;100702.75;10394465;28;20087;-77
2023/04/10 21:37:16;;;;;;;0.88;0.17;;;;;;;11.31;100.00;100700.69;10408676;28;20508;-77
2023/04/10 21:42:18;;;;;;;2.08;0.85;;;;;;;11.38;100.00;100698.25;10416039;28;20033;-78
2023/04/10 21:47:19;;;;;;;0.93;0.60;;;;;;;11.42;100.00;100705.22;10407374;28;20518;-77
2023/04/10 21:52:21;;;;;;;0.03;0.03;;;;;;;11.46;100.00;100705.28;10404242;28;20410;-77
2023/04/10 21:57:22;;;;;;;1.77;0.25;;;;;;;11.32;100.00;100692.13;10400014;28;20116;-78
2023/04/10 22:02:23;;;;;;;0.17;0.15;;;;;;;11.26;100.00;100690.28;10401219;28;20049;-78
2023/04/10 22:07:25;;;;;;;1.27;0.00;;;;;;;11.30;100.00;100694.66;10407782;28;20478;-77
2023/04/10 22:12:27;;;;;;;0.22;0.00;;;;;;;11.24;100.00;100699.69;10393741;28;20053;-78
2023/04/10 22:17:28;;;;;;;0.25;0.25;;;;;;;11.53;100.00;100695.09;10385973;28;20052;-77
2023/04/10 22:22:30;;;;;;;0.82;0.43;;;;;;;11.29;100.00;100686.91;10395145;28;20111;-77
2023/04/10 22:27:32;;;;;;;0.60;0.20;;;;;;;11.39;100.00;100681.94;10416830;28;20045;-77
2023/04/10 22:32:33;;;;;;;0.30;0.25;;;;;;;11.29;100.00;100674.00;10409782;28;20083;-77
2023/04/10 22:37:35;;;;;;;1.15;0.25;;;;;;;11.05;100.00;100680.41;10401770;28;20053;-77
2023/04/10 22:42:36;;;;;;;0.00;0.00;;;;;;;11.01;100.00;100666.59;10396292;28;20463;-77
2023/04/10 22:47:38;;;;;;;0.00;0.00;;;;;;;11.02;100.00;100652.00;10400837;28;20475;-77
2023/04/10 22:52:39;;;;;;;0.45;0.15;;;;;;;10.98;100.00;100650.19;10393279;28;20134;-77
2023/04/10 22:57:41;;;;;;;0.20;0.10;;;;;;;11.05;100.00;100645.19;10405669;28;20440;-77
2023/04/10 23:02:42;;;;;;;0.10;0.10;;;;;;;10.90;100.00;100632.00;10394342;28;20535;-77
2023/04/10 23:07:44;;;;;;;0.13;0.13;;;;;;;10.86;100.00;100625.03;10390273;28;20057;-77
2023/04/10 23:12:45;;;;;;;2.35;0.65;;;;;;;10.95;100.00;100614.91;10385877;28;20129;-78